createdAt,value
2024-02-07T00:02:17.602Z,57.14
2024-02-07T00:04:44.039Z,56.90
2024-02-07T00:07:10.498Z,56.88
2024-02-07T00:09:36.777Z,56.85
2024-02-07T00:12:02.943Z,56.93
2024-02-07T00:14:29.118Z,57.36
2024-02-07T00:16:55.451Z,56.89
2024-02-07T00:19:21.671Z,56.90
2024-02-07T00:21:48.213Z,56.97
2024-02-07T00:24:14.444Z,56.85
2024-02-07T00:26:40.574Z,57.15
2024-02-07T00:29:06.786Z,56.90
2024-02-07T00:31:32.985Z,56.85
2024-02-07T00:33:59.138Z,57.10
2024-02-07T00:36:28.064Z,57.14
2024-02-07T00:38:54.327Z,57.26
2024-02-07T00:41:20.514Z,57.02
2024-02-07T00:44:33.817Z,57.02
2024-02-07T00:47:02.719Z,56.91
2024-02-07T00:49:28.942Z,56.83
2024-02-07T00:51:55.168Z,57.30
2024-02-07T00:54:21.315Z,56.89
2024-02-07T00:56:47.444Z,57.15
2024-02-07T00:59:13.768Z,57.28
2024-02-07T01:01:40.080Z,57.22
2024-02-07T01:04:06.398Z,56.84
2024-02-07T01:06:32.682Z,56.89
2024-02-07T01:08:58.854Z,57.02
2024-02-07T01:11:27.094Z,57.17
2024-02-07T01:13:53.333Z,57.29
2024-02-07T01:16:21.601Z,57.03
2024-02-07T01:18:47.813Z,57.13
2024-02-07T01:21:14.173Z,57.23
2024-02-07T01:23:40.362Z,57.20
2024-02-07T01:26:06.585Z,56.99
2024-02-07T01:28:32.853Z,57.13
2024-02-07T01:30:59.110Z,56.98
2024-02-07T01:33:25.375Z,56.84
2024-02-07T01:35:51.600Z,56.94
2024-02-07T01:38:17.771Z,56.96
2024-02-07T01:40:44.169Z,57.04
2024-02-07T01:43:10.534Z,56.82
2024-02-07T01:45:36.723Z,57.07
2024-02-07T01:48:04.245Z,56.98
2024-02-07T01:50:31.804Z,57.24
2024-02-07T01:52:57.990Z,57.55
2024-02-07T01:55:24.741Z,57.07
2024-02-07T01:57:53.358Z,56.85
2024-02-07T02:00:20.920Z,57.18
2024-02-07T02:02:56.119Z,57.00
2024-02-07T02:05:22.385Z,57.18
2024-02-07T02:07:48.709Z,57.23
2024-02-07T02:10:15.141Z,57.14
2024-02-07T02:12:41.357Z,56.93
2024-02-07T02:15:07.497Z,56.92
2024-02-07T02:17:33.704Z,57.27
2024-02-07T02:19:59.993Z,57.22
2024-02-07T02:22:26.230Z,57.12
2024-02-07T02:24:52.412Z,57.12
2024-02-07T02:27:18.628Z,56.94
2024-02-07T02:32:28.564Z,57.16
2024-02-07T02:34:54.827Z,57.02
2024-02-07T02:37:21.058Z,56.91
2024-02-07T02:39:47.263Z,57.25
2024-02-07T02:42:13.432Z,56.96
2024-02-07T02:44:39.662Z,57.35
2024-02-07T02:47:05.915Z,57.06
2024-02-07T02:49:32.274Z,57.21
2024-02-07T02:51:58.562Z,57.28
2024-02-07T02:54:24.724Z,57.11
2024-02-07T02:56:50.851Z,57.11
2024-02-07T02:59:17.002Z,56.99
2024-02-07T03:01:43.252Z,57.16
2024-02-07T03:04:09.500Z,57.02
2024-02-07T03:06:35.777Z,57.31
2024-02-07T03:09:01.940Z,56.99
2024-02-07T03:11:28.086Z,57.05
2024-02-07T03:13:54.252Z,56.95
2024-02-07T03:16:20.652Z,57.25
2024-02-07T03:18:47.014Z,57.25
2024-02-07T03:21:13.200Z,57.17
2024-02-07T03:23:39.525Z,57.36
2024-02-07T03:26:05.869Z,57.06
2024-02-07T03:28:32.132Z,56.97
2024-02-07T03:30:58.456Z,56.84
2024-02-07T03:33:24.713Z,57.31
2024-02-07T03:35:50.894Z,57.32
2024-02-07T03:38:17.143Z,57.45
2024-02-07T03:40:43.375Z,57.18
2024-02-07T03:43:09.604Z,57.01
2024-02-07T03:45:35.793Z,57.06
2024-02-07T03:48:02.033Z,57.04
2024-02-07T03:50:28.203Z,57.00
2024-02-07T03:52:54.440Z,57.05
2024-02-07T03:55:20.736Z,56.98
2024-02-07T03:57:46.973Z,57.03
2024-02-07T04:00:13.155Z,57.33
2024-02-07T04:02:39.316Z,57.43
2024-02-07T04:05:05.635Z,57.00
2024-02-07T04:07:32.014Z,57.40
2024-02-07T04:09:58.255Z,56.96
2024-02-07T04:12:24.530Z,57.08
2024-02-07T04:14:50.840Z,57.09
2024-02-07T04:17:17.015Z,57.42
2024-02-07T04:19:43.243Z,57.18
2024-02-07T04:22:09.616Z,57.48
2024-02-07T04:24:35.792Z,57.18
2024-02-07T04:27:01.938Z,57.06
2024-02-07T04:29:28.181Z,57.13
2024-02-07T04:31:54.338Z,57.09
2024-02-07T04:34:20.571Z,57.18
2024-02-07T04:36:46.772Z,57.46
2024-02-07T04:39:12.994Z,57.02
2024-02-07T04:41:39.140Z,57.21
2024-02-07T04:44:05.279Z,57.11
2024-02-07T04:46:31.446Z,57.18
2024-02-07T04:48:57.695Z,57.35
2024-02-07T04:51:23.889Z,57.35
2024-02-07T04:53:50.022Z,57.28
2024-02-07T04:56:16.344Z,57.34
2024-02-07T04:58:42.547Z,57.26
2024-02-07T05:01:08.749Z,57.36
2024-02-07T05:03:35.007Z,57.11
2024-02-07T05:06:01.215Z,57.43
2024-02-07T05:08:27.442Z,57.27
2024-02-07T05:10:53.600Z,57.04
2024-02-07T05:13:19.875Z,57.46
2024-02-07T05:15:46.036Z,57.25
2024-02-07T05:18:12.248Z,57.38
2024-02-07T05:20:38.476Z,57.46
2024-02-07T05:23:04.768Z,57.04
2024-02-07T05:25:30.961Z,57.17
2024-02-07T05:27:57.128Z,57.08
2024-02-07T05:30:23.282Z,57.32
2024-02-07T05:32:49.533Z,57.37
2024-02-07T05:35:15.866Z,56.99
2024-02-07T05:37:42.142Z,57.48
2024-02-07T05:40:08.325Z,57.12
2024-02-07T05:42:34.789Z,57.15
2024-02-07T05:45:00.924Z,57.17
2024-02-07T05:47:27.200Z,57.47
2024-02-07T05:49:53.425Z,57.44
2024-02-07T05:52:19.610Z,57.32
2024-02-07T05:54:45.810Z,57.39
2024-02-07T05:57:12.006Z,57.37
2024-02-07T05:59:38.151Z,57.06
2024-02-07T06:02:06.504Z,57.19
2024-02-07T06:04:38.953Z,57.50
2024-02-07T06:07:05.196Z,57.35
2024-02-07T06:09:31.381Z,57.24
2024-02-07T06:11:57.549Z,57.12
2024-02-07T06:14:23.706Z,57.37
2024-02-07T06:16:49.982Z,57.20
2024-02-07T06:19:16.353Z,57.20
2024-02-07T06:21:42.583Z,57.48
2024-02-07T06:24:08.744Z,57.21
2024-02-07T06:26:34.947Z,57.50
2024-02-07T06:29:01.131Z,57.50
2024-02-07T06:31:27.594Z,57.22
2024-02-07T06:33:53.868Z,57.42
2024-02-07T06:36:20.063Z,57.29
2024-02-07T06:38:46.220Z,57.22
2024-02-07T06:41:12.391Z,57.51
2024-02-07T06:43:38.593Z,57.23
2024-02-07T06:46:04.752Z,57.46
2024-02-07T06:48:30.951Z,57.35
2024-02-07T06:50:57.110Z,57.49
2024-02-07T06:53:23.259Z,57.46
2024-02-07T06:55:49.471Z,57.24
2024-02-07T06:58:15.740Z,57.67
2024-02-07T07:00:41.986Z,57.64
2024-02-07T07:03:08.242Z,57.60
2024-02-07T07:05:34.461Z,57.22
2024-02-07T07:08:00.746Z,57.13
2024-02-07T07:10:26.977Z,57.17
2024-02-07T07:12:53.171Z,57.23
2024-02-07T07:15:26.518Z,57.19
2024-02-07T07:17:59.415Z,57.62
2024-02-07T07:20:25.668Z,57.19
2024-02-07T07:23:02.952Z,57.29
2024-02-07T07:25:36.182Z,57.47
2024-02-07T07:28:02.423Z,57.60
2024-02-07T07:30:28.600Z,57.58
2024-02-07T07:32:55.098Z,57.61
2024-02-07T07:35:21.433Z,57.31
2024-02-07T07:37:47.675Z,57.51
2024-02-07T07:40:13.923Z,57.60
2024-02-07T07:42:40.081Z,57.20
2024-02-07T07:45:06.230Z,57.35
2024-02-07T07:47:32.570Z,57.59
2024-02-07T07:49:58.747Z,57.31
2024-02-07T07:52:24.990Z,57.39
2024-02-07T07:54:51.202Z,57.80
2024-02-07T07:57:17.340Z,57.71
2024-02-07T07:59:43.479Z,57.60
2024-02-07T08:02:09.701Z,57.79
2024-02-07T08:04:35.940Z,57.53
2024-02-07T08:07:02.172Z,57.78
2024-02-07T08:09:28.329Z,57.30
2024-02-07T08:11:54.483Z,57.78
2024-02-07T08:14:20.609Z,57.70
2024-02-07T08:16:46.805Z,57.27
2024-02-07T08:19:13.020Z,57.49
2024-02-07T08:21:39.271Z,57.75
2024-02-07T08:24:05.449Z,57.74
2024-02-07T08:26:31.609Z,57.57
2024-02-07T08:28:57.880Z,57.65
2024-02-07T08:31:24.215Z,57.69
2024-02-07T08:33:50.526Z,57.71
2024-02-07T08:36:17.148Z,57.47
2024-02-07T08:38:43.431Z,57.62
2024-02-07T08:41:09.573Z,57.67
2024-02-07T08:43:35.735Z,57.68
2024-02-07T08:46:02.048Z,57.46
2024-02-07T08:48:28.313Z,57.50
2024-02-07T08:50:54.529Z,57.67
2024-02-07T08:53:21.789Z,57.62
2024-02-07T08:55:48.147Z,57.50
2024-02-07T08:58:14.330Z,57.99
2024-02-07T09:00:40.517Z,57.71
2024-02-07T09:03:06.665Z,57.70
2024-02-07T09:05:32.882Z,57.49
2024-02-07T09:07:59.137Z,57.60
2024-02-07T09:10:25.373Z,57.34
2024-02-07T09:12:51.612Z,57.58
2024-02-07T09:15:19.068Z,57.91
2024-02-07T09:17:45.233Z,57.54
2024-02-07T09:20:11.495Z,57.81
2024-02-07T09:22:37.697Z,57.54
2024-02-07T09:25:03.894Z,57.56
2024-02-07T09:27:31.673Z,57.53
2024-02-07T09:30:07.245Z,57.34
2024-02-07T09:32:37.988Z,57.81
2024-02-07T09:35:04.456Z,57.87
2024-02-07T09:37:30.841Z,57.56
2024-02-07T09:39:56.990Z,57.81
2024-02-07T09:42:23.346Z,57.49
2024-02-07T09:44:49.508Z,57.63
2024-02-07T09:47:15.650Z,57.44
2024-02-07T09:49:41.886Z,57.42
2024-02-07T09:52:08.071Z,57.87
2024-02-07T09:54:36.471Z,57.70
2024-02-07T09:57:02.650Z,57.88
2024-02-07T09:59:28.906Z,57.46
2024-02-07T10:01:55.550Z,57.81
2024-02-07T10:04:21.846Z,57.92
2024-02-07T10:06:47.990Z,57.88
2024-02-07T10:09:14.130Z,57.74
2024-02-07T10:11:40.399Z,57.49
2024-02-07T10:14:06.612Z,57.74
2024-02-07T10:16:32.832Z,57.58
2024-02-07T10:18:59.026Z,57.67
2024-02-07T10:21:30.903Z,57.87
2024-02-07T10:23:57.041Z,57.96
2024-02-07T10:26:23.249Z,57.58
2024-02-07T10:28:49.493Z,57.61
2024-02-07T10:31:15.680Z,57.62
2024-02-07T10:33:43.970Z,57.44
2024-02-07T10:36:10.380Z,57.89
2024-02-07T10:38:36.565Z,57.53
2024-02-07T10:41:02.808Z,57.79
2024-02-07T10:43:29.054Z,57.91
2024-02-07T10:45:55.328Z,57.58
2024-02-07T10:48:21.599Z,57.88
2024-02-07T10:50:47.917Z,57.90
2024-02-07T10:53:14.187Z,57.68
2024-02-07T10:55:40.891Z,57.91
2024-02-07T10:58:07.039Z,57.99
2024-02-07T11:00:33.256Z,57.98
2024-02-07T11:02:59.481Z,57.83
2024-02-07T11:05:25.754Z,57.71
2024-02-07T11:07:52.208Z,57.65
2024-02-07T11:10:18.627Z,57.59
2024-02-07T11:12:44.916Z,57.96
2024-02-07T11:15:11.150Z,57.65
2024-02-07T11:17:37.341Z,58.17
2024-02-07T11:20:03.593Z,57.90
2024-02-07T11:22:29.800Z,57.69
2024-02-07T11:24:55.969Z,57.58
2024-02-07T11:27:22.103Z,57.98
2024-02-07T11:29:48.274Z,57.60
2024-02-07T11:32:14.426Z,57.94
2024-02-07T11:34:40.769Z,57.95
2024-02-07T11:37:10.501Z,57.67
2024-02-07T11:42:20.072Z,57.76
2024-02-07T11:44:46.236Z,57.75
2024-02-07T11:47:12.446Z,57.97
2024-02-07T11:49:38.828Z,57.59
2024-02-07T11:52:21.136Z,57.66
2024-02-07T11:54:49.573Z,58.13
2024-02-07T11:57:16.307Z,57.95
2024-02-07T11:59:42.585Z,57.76
2024-02-07T12:02:11.590Z,57.84
2024-02-07T12:04:38.586Z,57.77
2024-02-07T12:07:04.780Z,57.86
2024-02-07T12:09:32.097Z,57.84
2024-02-07T12:11:58.304Z,57.77
2024-02-07T12:14:24.483Z,58.16
2024-02-07T12:16:50.741Z,58.13
2024-02-07T12:19:17.039Z,58.04
2024-02-07T12:21:54.170Z,57.80
2024-02-07T12:24:20.321Z,57.97
2024-02-07T12:26:46.487Z,57.78
2024-02-07T12:29:12.712Z,57.81
2024-02-07T12:31:38.944Z,57.90
2024-02-07T12:34:05.188Z,57.71
2024-02-07T12:36:34.337Z,57.82
2024-02-07T12:39:00.563Z,58.01
2024-02-07T12:41:26.764Z,58.03
2024-02-07T12:43:52.989Z,58.00
2024-02-07T12:46:19.287Z,57.79
2024-02-07T12:48:45.669Z,57.97
2024-02-07T12:51:12.291Z,57.87
2024-02-07T12:53:38.763Z,57.85
2024-02-07T12:56:06.235Z,58.16
2024-02-07T12:58:32.429Z,58.09
2024-02-07T13:00:58.797Z,58.12
2024-02-07T13:03:24.973Z,57.83
2024-02-07T13:05:51.225Z,58.16
2024-02-07T13:08:17.433Z,58.13
2024-02-07T13:10:43.605Z,58.16
2024-02-07T13:13:09.746Z,57.83
2024-02-07T13:15:35.923Z,58.19
2024-02-07T13:18:02.121Z,57.93
2024-02-07T13:20:28.370Z,57.98
2024-02-07T13:22:54.732Z,57.93
2024-02-07T13:25:47.217Z,57.86
2024-02-07T13:28:15.061Z,58.11
2024-02-07T13:30:41.342Z,57.95
2024-02-07T13:33:07.514Z,58.17
2024-02-07T13:35:33.872Z,57.83
2024-02-07T13:38:00.137Z,58.13
2024-02-07T13:40:26.369Z,58.18
2024-02-07T13:42:52.571Z,58.22
2024-02-07T13:45:18.720Z,57.84
2024-02-07T13:47:44.969Z,57.90
2024-02-07T13:50:11.249Z,58.16
2024-02-07T13:52:37.476Z,58.36
2024-02-07T13:55:03.645Z,58.02
2024-02-07T13:57:29.815Z,58.20
2024-02-07T13:59:56.005Z,58.04
2024-02-07T14:02:22.344Z,58.01
2024-02-07T14:04:48.950Z,58.29
2024-02-07T14:07:15.262Z,57.93
2024-02-07T14:09:41.497Z,58.20
2024-02-07T14:12:07.711Z,58.05
2024-02-07T14:14:33.931Z,58.06
2024-02-07T14:17:00.141Z,58.30
2024-02-07T14:19:32.205Z,58.01
2024-02-07T14:22:00.611Z,57.94
2024-02-07T14:24:28.320Z,57.94
2024-02-07T14:26:54.473Z,58.13
2024-02-07T14:29:20.637Z,57.96
2024-02-07T14:31:46.842Z,58.22
2024-02-07T14:34:16.129Z,58.02
2024-02-07T14:36:42.781Z,58.00
2024-02-07T14:39:09.043Z,58.11
2024-02-07T14:41:38.047Z,58.02
2024-02-07T14:44:04.269Z,58.06
2024-02-07T14:46:30.565Z,57.97
2024-02-07T14:48:56.902Z,57.98
2024-02-07T14:51:23.114Z,58.04
2024-02-07T14:53:49.312Z,58.06
2024-02-07T14:56:15.510Z,58.04
2024-02-07T14:58:41.882Z,58.30
2024-02-07T15:01:08.198Z,57.80
2024-02-07T15:03:36.098Z,57.87
2024-02-07T15:06:02.716Z,58.12
2024-02-07T15:08:28.901Z,58.12
2024-02-07T15:10:55.094Z,58.11
2024-02-07T15:13:21.319Z,58.01
2024-02-07T15:15:47.503Z,57.88
2024-02-07T15:18:13.714Z,57.99
2024-02-07T15:20:39.910Z,58.25
2024-02-07T15:23:06.124Z,57.80
2024-02-07T15:25:32.677Z,58.18
2024-02-07T15:27:59.054Z,58.41
2024-02-07T15:30:25.254Z,57.97
2024-02-07T15:32:51.530Z,58.14
2024-02-07T15:35:17.889Z,58.00
2024-02-07T15:37:45.946Z,58.00
2024-02-07T15:40:12.364Z,57.93
2024-02-07T15:42:38.553Z,58.25
2024-02-07T15:45:04.753Z,58.23
2024-02-07T15:47:30.975Z,58.23
2024-02-07T15:49:57.271Z,58.07
2024-02-07T15:52:23.600Z,58.30
2024-02-07T15:54:49.759Z,58.09
2024-02-07T15:57:15.974Z,58.17
2024-02-07T15:59:42.202Z,58.31
2024-02-07T16:02:08.451Z,58.32
2024-02-07T16:04:34.758Z,58.12
2024-02-07T16:07:01.582Z,58.18
2024-02-07T16:09:27.766Z,58.07
2024-02-07T16:11:53.926Z,58.12
2024-02-07T16:14:20.101Z,58.26
2024-02-07T16:16:49.340Z,58.29
2024-02-07T16:19:15.655Z,57.93
2024-02-07T16:21:41.887Z,58.08
2024-02-07T16:24:08.269Z,58.15
2024-02-07T16:26:36.857Z,58.35
2024-02-07T16:29:03.143Z,58.08
2024-02-07T16:31:29.404Z,58.10
2024-02-07T17:49:06.035Z,57.92
2024-02-07T17:51:33.237Z,57.76
2024-02-07T17:53:59.504Z,57.72
2024-02-07T18:03:42.628Z,57.93
2024-02-07T18:08:22.621Z,58.00
2024-02-07T18:10:48.814Z,58.12
2024-02-07T18:13:14.971Z,58.13
2024-02-07T18:15:41.236Z,58.18
2024-02-07T18:18:07.539Z,58.14
2024-02-07T18:20:33.929Z,58.24
2024-02-07T18:23:00.278Z,58.34
2024-02-07T18:25:26.547Z,58.21
2024-02-07T18:27:52.715Z,58.45
2024-02-07T18:30:18.883Z,58.31
2024-02-07T18:32:45.129Z,58.50
2024-02-07T18:35:11.344Z,58.36
2024-02-07T18:37:37.650Z,58.46
2024-02-07T18:40:03.907Z,58.34
2024-02-07T18:42:39.060Z,58.63
2024-02-07T18:45:06.319Z,58.63
2024-02-07T18:47:32.498Z,58.57
2024-02-07T18:49:58.660Z,58.63
2024-02-07T18:52:24.882Z,58.54
2024-02-07T18:54:51.106Z,58.70
2024-02-07T18:57:18.639Z,58.61
2024-02-07T18:59:44.945Z,58.69
2024-02-07T19:02:11.207Z,58.66
2024-02-07T19:04:37.516Z,58.66
2024-02-07T19:07:03.959Z,58.71
2024-02-07T19:09:30.166Z,58.67
2024-02-07T19:11:56.341Z,58.86
2024-02-07T19:14:29.969Z,58.74
2024-02-07T19:16:56.569Z,58.83
2024-02-07T19:19:23.036Z,58.57
2024-02-07T19:21:49.332Z,58.90
2024-02-07T19:24:15.571Z,58.64
2024-02-07T19:26:41.828Z,58.89
2024-02-07T19:29:08.091Z,58.78
2024-02-07T19:31:34.447Z,58.80
2024-02-07T19:34:00.680Z,58.61
2024-02-07T19:36:26.925Z,58.78
2024-02-07T19:38:53.103Z,58.84
2024-02-07T19:41:19.328Z,58.83
2024-02-07T19:43:45.665Z,58.56
2024-02-07T19:46:11.809Z,58.89
2024-02-07T19:48:37.976Z,58.84
2024-02-07T19:51:04.639Z,58.97
2024-02-07T19:53:30.795Z,58.61
2024-02-07T19:55:56.952Z,58.72
2024-02-07T19:58:23.197Z,58.67
2024-02-07T20:00:49.384Z,59.03
2024-02-07T20:03:15.866Z,58.89
2024-02-07T20:05:42.175Z,58.65
2024-02-07T20:08:08.435Z,59.10
2024-02-07T20:10:34.637Z,58.83
2024-02-07T20:13:00.872Z,58.83
2024-02-07T20:15:27.137Z,58.85
2024-02-07T20:17:53.476Z,58.99
2024-02-07T20:20:20.491Z,58.98
2024-02-07T20:22:50.178Z,58.79
2024-02-07T20:25:16.513Z,59.05
2024-02-07T20:27:42.669Z,58.88
2024-02-07T20:30:08.816Z,59.03
2024-02-07T20:32:35.006Z,58.82
2024-02-07T20:35:01.417Z,58.93
2024-02-07T20:37:27.686Z,58.74
2024-02-07T20:39:53.845Z,59.02
2024-02-07T20:42:20.015Z,58.97
2024-02-07T20:44:46.208Z,58.79
2024-02-07T20:47:12.465Z,59.02
2024-02-07T20:49:38.780Z,58.79
2024-02-07T20:52:04.945Z,58.87
2024-02-07T20:54:31.098Z,58.76
2024-02-07T20:56:57.274Z,58.97
2024-02-07T20:59:23.418Z,58.97
2024-02-07T21:01:49.600Z,58.81
2024-02-07T21:04:15.813Z,58.97
2024-02-07T21:06:42.005Z,59.07
2024-02-07T21:09:08.176Z,58.88
2024-02-07T21:11:34.413Z,58.78
2024-02-07T21:14:00.657Z,58.87
2024-02-07T21:16:26.851Z,58.87
2024-02-07T21:18:53.068Z,58.99
2024-02-07T21:21:19.276Z,59.01
2024-02-07T21:23:46.815Z,58.93
2024-02-07T21:26:13.065Z,58.94
2024-02-07T21:28:39.403Z,58.95
2024-02-07T21:31:05.641Z,59.02
2024-02-07T21:33:31.906Z,59.05
2024-02-07T21:35:58.106Z,58.86
2024-02-07T21:38:24.499Z,58.84
2024-02-07T21:40:50.783Z,58.87
2024-02-07T21:43:16.926Z,58.91
2024-02-07T21:45:43.091Z,59.10
2024-02-07T21:48:09.320Z,58.92
2024-02-07T21:50:35.545Z,58.83
2024-02-07T21:53:01.862Z,58.73
2024-02-07T21:55:28.141Z,58.80
2024-02-07T21:57:54.309Z,59.13
2024-02-07T22:00:20.619Z,59.01
2024-02-07T22:02:46.792Z,58.98
2024-02-07T22:05:13.011Z,58.64
2024-02-07T22:07:39.298Z,58.86
2024-02-07T22:10:05.576Z,59.09
2024-02-07T22:12:31.827Z,58.83
2024-02-07T22:14:59.608Z,58.99
2024-02-07T22:17:26.153Z,58.82
2024-02-07T22:19:52.386Z,58.88
2024-02-07T22:22:21.837Z,58.74
2024-02-07T22:24:50.499Z,58.87
2024-02-07T22:27:16.641Z,59.12
2024-02-07T22:29:42.774Z,58.82
2024-02-07T22:32:09.094Z,59.02
2024-02-07T22:34:35.428Z,58.87
2024-02-07T22:37:01.590Z,59.09
2024-02-07T22:39:27.764Z,59.17
2024-02-07T22:41:53.904Z,58.83
2024-02-07T22:44:20.105Z,59.12
2024-02-07T22:46:46.497Z,58.85
2024-02-07T22:49:12.781Z,58.83
2024-02-07T22:51:39.045Z,58.77
2024-02-07T22:54:05.218Z,58.74
2024-02-07T22:56:33.949Z,59.00
2024-02-07T22:59:00.137Z,59.06
2024-02-07T23:01:26.428Z,59.10
2024-02-07T23:03:52.700Z,58.82
2024-02-07T23:06:18.993Z,58.72
2024-02-07T23:08:45.232Z,59.03
2024-02-07T23:11:11.422Z,59.04
2024-02-07T23:13:37.720Z,59.03
2024-02-07T23:16:03.923Z,58.59
2024-02-07T23:18:30.179Z,58.76
2024-02-07T23:20:56.405Z,59.02
2024-02-07T23:23:22.572Z,58.97
2024-02-07T23:25:48.713Z,58.90
2024-02-07T23:28:14.888Z,58.84
2024-02-07T23:30:41.072Z,58.99
2024-02-07T23:33:07.263Z,58.84
2024-02-07T23:35:33.510Z,59.03
2024-02-07T23:37:59.720Z,58.85
2024-02-07T23:40:25.911Z,58.87
2024-02-07T23:42:52.080Z,59.09
2024-02-07T23:45:18.277Z,59.02
2024-02-07T23:47:44.577Z,59.04
2024-02-07T23:50:10.936Z,58.94
2024-02-07T23:52:37.435Z,59.03
2024-02-07T23:55:03.651Z,58.89
2024-02-07T23:57:29.818Z,59.08
2024-02-07T23:59:55.998Z,58.86
